Flight Track Log - Related Links

Times and Time Zones

All times are in EDT time to prevent confusion due to time zone crossing. See the UCA3596 flight status page for this flight to view local times or setup timezone preferences in your user account.

Time Position Orientation Groundspeed Altitude Reporting Facility
EDT Latitude Longitude Course Direction KTS MPH feet Rate Location/Type
Sat 01:22:00 PM 39.4153 -77.2567 19° North  Level Estimated
Sat 01:23:00 PM 39.4748 -77.2307 19° North  Level Estimated
Sat 01:24:00 PM 39.5343 -77.2046 19° North  Level Estimated
Sat 01:25:00 PM 39.5938 -77.1784 19° North  Level Estimated
Sat 01:26:00 PM 39.6533 -77.1522 19° North  Level Estimated
Sat 01:27:00 PM 39.7128 -77.1260 19° North  Level Estimated
Sat 01:28:00 PM 39.7723 -77.0997 19° North  Level Estimated
Sat 01:29:00 PM 39.8317 -77.0734 19° North  Level Estimated
Sat 01:30:00 PM 39.8912 -77.0470 19° North  Level Estimated
Sat 01:31:00 PM 39.9507 -77.0206 19° North  Level Estimated
Sat 01:32:00 PM 40.0102 -76.9941 19° North  Level Estimated
Sat 01:33:00 PM 40.0696 -76.9676 19° North  Level Estimated
Sat 01:34:00 PM 40.1291 -76.9410 19° North  Level Estimated
Sat 01:35:00 PM 40.1885 -76.9144 19° North  Level Estimated
Sat 01:36:00 PM 40.2479 -76.8878 19° North  Level Estimated
Sat 01:37:00 PM 40.3074 -76.8611 19° North  Level Estimated
Sat 01:38:00 PM 40.3668 -76.8343 19° North  Level Estimated
Sat 01:39:00 PM 40.4262 -76.8075 19° North  Level Estimated
Sat 01:40:00 PM 40.4856 -76.7807 19° North  Level Estimated
Sat 01:41:00 PM 40.5450 -76.7538 19° North  Level Estimated
Sat 01:42:00 PM 40.6044 -76.7269 19° North  Level Estimated
Sat 01:43:00 PM 40.6638 -76.6999 19° North  Level Estimated
Sat 01:44:00 PM 40.7232 -76.6729 19° North  Level Estimated
Sat 01:45:00 PM 40.7826 -76.6458 19° North  Level Estimated
Sat 01:46:00 PM 40.8420 -76.6187 19° North  Level Estimated
Sat 01:47:00 PM 40.9013 -76.5915 19° North  Level Estimated
Sat 01:48:00 PM 40.9607 -76.5642 19° North  Level Estimated
Sat 01:49:00 PM 41.0201 -76.5370 19° North  Level Estimated
Sat 01:50:00 PM 41.0794 -76.5096 19° North  Level Estimated
Sat 01:51:00 PM 41.1388 -76.4823 19° North  Level Estimated
Sat 01:52:00 PM 41.1981 -76.4548 19° North  Level Estimated
Sat 01:53:00 PM 41.2574 -76.4274 19° North  Level Estimated
Sat 01:54:00 PM 41.3167 -76.3999 19° North  Level Estimated
Sat 01:55:00 PM 41.3761 -76.3723 19° North  Level Estimated
Sat 01:56:00 PM 41.4354 -76.3447 19° North  Level Estimated
Sat 01:57:00 PM 41.4947 -76.3170 19° North  Level Estimated
Sat 01:58:00 PM 41.5540 -76.2893 19° North  Level Estimated
Sat 01:59:00 PM 41.6133 -76.2615 19° North  Level Estimated
Sat 02:00:00 PM 41.6726 -76.2337 19° North  Level Estimated
Sat 02:01:00 PM 41.7318 -76.2058 19° North  Level Estimated
Sat 02:02:00 PM 41.7911 -76.1778 19° North  Level Estimated
Sat 02:03:00 PM 41.8504 -76.1499 19° North  Level Estimated
Sat 02:04:00 PM 41.9096 -76.1218 19° North  Level Estimated
Sat 02:05:00 PM 41.9689 -76.0937 19° North  Level Estimated
Sat 02:06:00 PM 42.0281 -76.0656 19° North  Level Estimated
Sat 02:07:00 PM 42.0873 -76.0374 19° North  Level Estimated
Sat 02:08:00 PM 42.1466 -76.0092 19° North  Level Estimated
Sat 02:09:00 PM 42.2058 -75.9809 19° North  Level Estimated
Sat 02:10:00 PM 42.2084 -75.9796 19° North  Level Estimated
Sat 02:11:00 PM 42.2084 -75.9796 35° Northeast  Level Estimated
Sat 02:12:00 PM 42.2084 -75.9796 35° Northeast  Level Estimated
Sat 02:13:00 PM 42.2084 -75.9796 35° Northeast  Level Estimated
Sat 02:14:00 PM 42.2084 -75.9796 35° Northeast  Level Estimated
Sat 02:15:00 PM 42.2084 -75.9796 35° Northeast  Level Estimated
Sat 02:16:00 PM 42.2084 -75.9796 35° Northeast  Level Estimated
Sat 02:17:00 PM 42.2084 -75.9796 35° Northeast  Level Estimated
Sat 02:18:00 PM 42.2084 -75.9796 35° Northeast  Level Estimated
Sat 02:19:00 PM 42.2084 -75.9796 35° Northeast  Level Estimated
Sat 02:20:00 PM 42.2084 -75.9796 35° Northeast  Level Estimated
Sat 02:21:00 PM 42.2084 -75.9796 35° Northeast  Level Estimated

Login

Don't have an account? Register now (free) for customized features, flight alerts, and more!